Time;durP1;ratioP1;P1;durP2;ratioP2;P2;SDS_P1;SDS_P2;PMS_P1;PMS_P2;Temp;Humidity;BMP_temperature;BMP_pressure;BME280_temperature;BME280_humidity;BME280_pressure;Samples;Min_cycle;Max_cycle;Signal;HPM_P1;HPM_P2
2022/09/30 00:01:31;;;;;;;12.57;7.07;;;9.50;93.70;;;;;;5007671;28;20425;-70
2022/09/30 00:03:57;;;;;;;11.47;6.63;;;9.40;93.40;;;;;;5002179;28;20786;-70
2022/09/30 00:06:28;;;;;;;12.30;6.57;;;9.40;93.30;;;;;;4988019;28;20433;-70
2022/09/30 00:08:55;;;;;;;10.07;6.47;;;9.40;93.30;;;;;;4999283;28;20525;-70
2022/09/30 00:11:27;;;;;;;21.17;8.70;;;9.30;93.60;;;;;;4998780;28;20438;-71
2022/09/30 00:13:54;;;;;;;14.37;7.90;;;9.30;93.80;;;;;;5006220;28;20876;-70
2022/09/30 00:16:22;;;;;;;12.57;6.33;;;9.40;94.00;;;;;;5008823;28;20494;-70
2022/09/30 00:18:48;;;;;;;10.83;6.30;;;9.40;94.20;;;;;;5009272;28;20993;-70
2022/09/30 00:21:15;;;;;;;9.37;5.83;;;9.60;94.20;;;;;;5006609;28;20452;-70
2022/09/30 00:23:43;;;;;;;10.27;5.57;;;9.60;94.00;;;;;;5002978;28;20781;-70
2022/09/30 00:26:16;;;;;;;9.63;5.93;;;9.70;93.70;;;;;;5007092;28;20826;-70
2022/09/30 00:28:42;;;;;;;10.60;5.37;;;9.70;93.40;;;;;;5003771;28;20548;-71
2022/09/30 00:31:12;;;;;;;9.10;5.97;;;9.80;92.60;;;;;;5005085;28;20428;-71
2022/09/30 00:33:38;;;;;;;10.10;5.67;;;9.90;92.20;;;;;;5004782;28;20432;-70
2022/09/30 00:36:04;;;;;;;10.37;5.67;;;9.80;92.20;;;;;;5007428;28;20417;-70
2022/09/30 00:38:31;;;;;;;10.10;5.57;;;9.80;92.10;;;;;;4986938;28;20468;-70
2022/09/30 00:40:57;;;;;;;12.97;6.70;;;9.80;92.30;;;;;;4989281;28;20437;-70
2022/09/30 00:43:42;;;;;;;10.30;6.00;;;9.80;92.30;;;;;;5009504;28;20431;-70
2022/09/30 00:46:35;;;;;;;7.90;5.87;;;9.80;92.10;;;;;;5010246;28;20424;-69
2022/09/30 00:49:12;;;;;;;11.90;5.97;;;9.80;92.10;;;;;;4986150;28;20833;-71
2022/09/30 00:51:43;;;;;;;9.07;5.40;;;9.70;92.20;;;;;;5000247;28;20428;-70
2022/09/30 00:54:15;;;;;;;10.60;6.50;;;9.70;92.30;;;;;;4988783;28;20969;-70
2022/09/30 00:56:49;;;;;;;10.90;5.93;;;9.70;92.50;;;;;;5003015;28;20439;-70
2022/09/30 00:59:23;;;;;;;12.43;6.80;;;9.60;92.70;;;;;;4998004;28;20547;-70
2022/09/30 01:01:49;;;;;;;11.00;7.37;;;9.50;92.90;;;;;;4999853;28;20430;-69
2022/09/30 01:04:20;;;;;;;11.83;6.60;;;9.50;93.10;;;;;;5008296;28;20421;-69
2022/09/30 01:06:46;;;;;;;10.77;6.43;;;9.60;93.40;;;;;;5004169;28;20512;-70
2022/09/30 01:09:12;;;;;;;15.13;5.70;;;9.60;93.40;;;;;;5003629;28;20430;-70
2022/09/30 01:11:38;;;;;;;9.40;6.20;;;9.70;93.40;;;;;;5005836;28;20519;-70
2022/09/30 01:14:17;;;;;;;8.43;5.20;;;9.80;93.30;;;;;;5012128;28;20428;-70
2022/09/30 01:16:59;;;;;;;12.47;6.50;;;9.80;93.10;;;;;;4994696;28;20459;-71
2022/09/30 01:19:46;;;;;;;9.13;6.13;;;9.90;93.10;;;;;;5000107;28;20953;-70
2022/09/30 01:22:25;;;;;;;13.10;6.20;;;9.90;93.20;;;;;;5012204;28;20424;-70
2022/09/30 01:25:03;;;;;;;9.40;6.17;;;9.90;93.30;;;;;;5004039;28;20780;-71
2022/09/30 01:27:47;;;;;;;11.23;6.30;;;9.90;93.20;;;;;;5002631;28;20514;-71
2022/09/30 01:30:50;;;;;;;11.17;5.77;;;9.90;93.30;;;;;;5005103;28;20417;-70
2022/09/30 01:33:43;;;;;;;12.13;7.40;;;10.00;93.20;;;;;;5003172;28;20516;-70
2022/09/30 01:36:31;;;;;;;11.47;7.67;;;10.10;92.90;;;;;;5011494;28;20915;-70
2022/09/30 01:39:08;;;;;;;14.37;8.80;;;10.10;93.10;;;;;;5008287;28;20522;-71
2022/09/30 01:41:42;;;;;;;18.10;7.90;;;10.10;93.10;;;;;;5010672;28;20869;-71
2022/09/30 01:44:17;;;;;;;14.10;6.60;;;10.00;93.10;;;;;;5006685;28;20435;-70
2022/09/30 01:46:50;;;;;;;13.43;7.47;;;10.10;93.30;;;;;;5007710;28;20904;-71
2022/09/30 01:49:19;;;;;;;11.17;6.93;;;10.00;93.10;;;;;;5006994;28;20416;-72
2022/09/30 01:51:54;;;;;;;12.00;6.70;;;10.00;93.20;;;;;;5010793;28;20834;-70
2022/09/30 01:54:44;;;;;;;13.63;6.90;;;10.20;92.90;;;;;;5009672;28;20797;-71
2022/09/30 01:57:42;;;;;;;14.30;7.33;;;10.10;92.30;;;;;;5001330;28;20548;-70
2022/09/30 02:00:10;;;;;;;9.73;6.13;;;10.10;92.10;;;;;;4992960;28;20468;-70
2022/09/30 02:02:55;;;;;;;9.77;6.00;;;10.00;92.20;;;;;;5008604;28;20795;-70
2022/09/30 02:05:41;;;;;;;11.20;6.40;;;9.90;92.40;;;;;;5013041;28;20412;-70
2022/09/30 02:08:17;;;;;;;12.43;6.30;;;9.80;92.80;;;;;;5006698;28;20460;-75
2022/09/30 02:10:59;;;;;;;12.10;6.63;;;9.80;93.10;;;;;;5008765;28;20420;-70
2022/09/30 02:13:30;;;;;;;11.13;6.20;;;9.70;93.20;;;;;;5009500;28;20417;-70
2022/09/30 02:16:00;;;;;;;11.23;6.73;;;9.70;93.40;;;;;;5008419;28;20498;-70
2022/09/30 02:18:34;;;;;;;13.73;7.00;;;9.70;93.60;;;;;;5008728;28;20507;-70
2022/09/30 02:21:02;;;;;;;15.50;7.37;;;9.70;93.70;;;;;;5004582;28;20448;-71
2022/09/30 02:23:32;;;;;;;12.17;6.80;;;9.60;93.60;;;;;;5011936;28;20472;-71
2022/09/30 02:26:09;;;;;;;11.30;7.20;;;9.70;93.80;;;;;;5003628;28;20942;-70
2022/09/30 02:28:41;;;;;;;13.00;7.70;;;9.70;94.00;;;;;;5003672;28;21240;-70
2022/09/30 02:31:09;;;;;;;12.97;7.60;;;9.70;93.90;;;;;;5011235;28;20417;-70
2022/09/30 02:33:43;;;;;;;13.20;8.00;;;9.80;93.90;;;;;;5011334;28;20425;-70
2022/09/30 02:36:18;;;;;;;14.93;8.23;;;9.80;93.90;;;;;;5002425;28;20470;-71
2022/09/30 02:38:47;;;;;;;15.20;8.40;;;9.60;93.70;;;;;;4996221;28;20488;-70
2022/09/30 02:41:22;;;;;;;16.63;9.20;;;9.50;94.10;;;;;;5000210;28;20944;-71
2022/09/30 02:43:49;;;;;;;17.20;9.13;;;9.40;94.70;;;;;;4983310;28;20856;-70
2022/09/30 02:46:22;;;;;;;18.73;10.00;;;9.30;94.90;;;;;;5009025;28;20413;-70
2022/09/30 02:49:00;;;;;;;16.63;11.03;;;9.20;95.20;;;;;;5005915;28;20468;-70
2022/09/30 02:51:52;;;;;;;20.50;10.90;;;9.20;95.40;;;;;;5008805;28;20416;-71
2022/09/30 02:54:18;;;;;;;20.47;11.27;;;9.20;95.40;;;;;;4998814;28;20480;-71
2022/09/30 02:57:05;;;;;;;15.63;9.30;;;9.30;95.50;;;;;;5008932;28;20920;-71
2022/09/30 02:59:31;;;;;;;22.93;10.60;;;9.30;95.50;;;;;;5006550;28;20222;-71
2022/09/30 03:01:57;;;;;;;19.00;10.67;;;9.30;95.40;;;;;;5011058;28;20471;-71
2022/09/30 03:04:27;;;;;;;14.73;8.90;;;9.40;95.50;;;;;;5009757;28;20479;-71
2022/09/30 03:06:54;;;;;;;16.07;8.63;;;9.50;95.50;;;;;;4988042;28;20268;-71
2022/09/30 03:09:24;;;;;;;13.93;7.60;;;9.60;95.40;;;;;;5003555;28;20425;-70
2022/09/30 03:11:58;;;;;;;18.03;8.33;;;9.60;95.30;;;;;;5007614;28;20504;-70
2022/09/30 03:14:38;;;;;;;18.50;10.50;;;9.60;95.10;;;;;;5004229;28;20868;-71
2022/09/30 03:17:27;;;;;;;26.10;11.97;;;9.60;94.90;;;;;;5003611;28;20480;-71
2022/09/30 03:20:07;;;;;;;17.23;10.50;;;9.60;94.80;;;;;;5005209;28;20591;-69
2022/09/30 03:22:44;;;;;;;20.80;10.70;;;9.50;94.80;;;;;;5007780;28;20440;-70
2022/09/30 03:25:54;;;;;;;21.00;11.77;;;9.50;94.80;;;;;;5005163;28;20500;-69
2022/09/30 03:28:29;;;;;;;20.80;11.40;;;9.50;94.80;;;;;;4905630;29;20488;-69
2022/09/30 03:31:08;;;;;;;18.97;10.90;;;9.30;94.80;;;;;;4983152;28;20428;-70
2022/09/30 03:33:46;;;;;;;18.63;10.30;;;9.30;95.00;;;;;;5004265;28;20416;-70
2022/09/30 03:36:26;;;;;;;20.60;11.33;;;9.30;94.90;;;;;;4999157;28;20420;-70
2022/09/30 03:39:07;;;;;;;17.00;9.90;;;9.30;95.00;;;;;;5004976;28;20469;-70
2022/09/30 03:41:48;;;;;;;18.20;10.13;;;9.30;95.10;;;;;;5006238;28;20507;-71
2022/09/30 03:44:33;;;;;;;17.33;9.70;;;9.40;95.20;;;;;;5008147;28;20414;-70
2022/09/30 03:47:08;;;;;;;16.70;8.80;;;9.50;95.10;;;;;;5005847;28;20460;-70
2022/09/30 03:49:43;;;;;;;14.00;7.93;;;9.50;94.90;;;;;;5011435;28;20421;-69
2022/09/30 03:52:11;;;;;;;11.80;8.77;;;9.60;94.70;;;;;;5008947;28;20433;-71
2022/09/30 03:54:53;;;;;;;16.07;9.70;;;9.60;94.50;;;;;;5008651;28;20426;-71
2022/09/30 03:57:19;;;;;;;15.80;8.00;;;9.60;94.40;;;;;;5002677;28;20457;-70
2022/09/30 03:59:44;;;;;;;16.33;9.33;;;9.60;94.30;;;;;;5004860;28;20468;-71
2022/09/30 04:02:12;;;;;;;17.43;8.40;;;9.50;94.30;;;;;;5008025;28;20261;-71
2022/09/30 04:04:39;;;;;;;13.30;7.93;;;9.50;94.30;;;;;;5007778;28;20555;-70
2022/09/30 04:07:05;;;;;;;15.60;9.00;;;9.50;94.20;;;;;;5000046;28;20467;-70
2022/09/30 04:09:31;;;;;;;19.10;9.10;;;9.50;94.20;;;;;;5000593;28;20759;-70
2022/09/30 04:11:56;;;;;;;14.40;8.10;;;9.40;94.30;;;;;;5008460;28;20428;-70
2022/09/30 04:14:22;;;;;;;15.83;8.50;;;9.40;94.40;;;;;;5006628;28;20189;-70
2022/09/30 04:16:47;;;;;;;12.40;8.20;;;9.40;94.40;;;;;;5002619;28;20609;-71
2022/09/30 04:19:13;;;;;;;16.73;9.00;;;9.40;94.50;;;;;;5008529;28;20717;-71
2022/09/30 04:21:38;;;;;;;14.77;7.83;;;9.40;94.50;;;;;;5005231;28;20194;-69
2022/09/30 04:24:04;;;;;;;15.57;9.33;;;9.40;94.60;;;;;;5006111;28;20174;-69
2022/09/30 04:26:30;;;;;;;15.20;8.93;;;9.40;94.50;;;;;;5009632;28;20186;-69
2022/09/30 04:28:57;;;;;;;14.93;9.17;;;9.40;94.60;;;;;;5006513;28;20217;-70
2022/09/30 04:31:24;;;;;;;16.00;8.00;;;9.40;94.50;;;;;;5013345;28;20760;-69
2022/09/30 04:33:49;;;;;;;12.83;8.33;;;9.40;94.50;;;;;;5006787;28;20555;-69
2022/09/30 04:36:16;;;;;;;13.97;8.60;;;9.40;94.40;;;;;;5016718;28;20463;-69
2022/09/30 04:38:41;;;;;;;16.23;9.43;;;9.40;94.40;;;;;;5011885;28;20218;-70
2022/09/30 04:41:12;;;;;;;12.07;7.60;;;9.40;94.40;;;;;;5017447;28;20435;-69
2022/09/30 04:43:38;;;;;;;14.30;8.27;;;9.40;94.40;;;;;;5019192;28;20178;-71
2022/09/30 04:46:04;;;;;;;16.20;7.80;;;9.30;94.40;;;;;;5003736;28;20420;-70
2022/09/30 04:48:30;;;;;;;16.80;8.87;;;9.30;94.40;;;;;;5004259;28;20220;-70
2022/09/30 04:50:58;;;;;;;12.90;8.67;;;9.20;94.40;;;;;;5005389;28;20508;-70
2022/09/30 04:53:23;;;;;;;14.43;8.70;;;9.20;94.40;;;;;;5007148;28;20194;-72
2022/09/30 04:55:49;;;;;;;20.73;9.10;;;9.10;94.30;;;;;;4989163;28;20495;-72
2022/09/30 04:58:15;;;;;;;15.40;9.30;;;9.00;94.60;;;;;;5002668;28;20210;-72
2022/09/30 05:00:41;;;;;;;15.10;9.03;;;9.00;94.80;;;;;;5006698;28;20483;-72
2022/09/30 05:03:07;;;;;;;15.53;9.60;;;9.00;94.90;;;;;;5005665;28;20474;-71
2022/09/30 05:05:33;;;;;;;18.47;9.43;;;8.90;94.90;;;;;;5006568;28;20228;-71
2022/09/30 05:08:03;;;;;;;17.47;9.43;;;8.90;95.00;;;;;;4999841;28;20469;-71
2022/09/30 05:10:29;;;;;;;21.50;10.57;;;8.80;95.00;;;;;;5000228;28;20432;-72
2022/09/30 05:12:56;;;;;;;17.00;9.03;;;8.80;95.00;;;;;;5006617;28;20850;-70
2022/09/30 05:15:21;;;;;;;15.37;9.97;;;8.80;95.00;;;;;;5000207;28;20409;-70
2022/09/30 05:17:51;;;;;;;19.57;11.20;;;8.70;95.10;;;;;;4975316;28;20457;-70
2022/09/30 05:20:17;;;;;;;19.53;11.10;;;8.70;95.10;;;;;;4983015;28;20468;-70
2022/09/30 05:22:43;;;;;;;17.63;10.40;;;8.70;95.20;;;;;;5007443;28;20876;-70
2022/09/30 05:25:09;;;;;;;27.20;11.30;;;8.60;95.20;;;;;;5005415;28;20467;-71
2022/09/30 05:27:34;;;;;;;20.03;11.60;;;8.60;95.20;;;;;;5002226;28;20277;-70
2022/09/30 05:30:00;;;;;;;19.93;11.83;;;8.50;95.30;;;;;;5006398;28;20235;-70
2022/09/30 05:32:26;;;;;;;18.50;9.80;;;8.50;95.40;;;;;;4986049;28;20429;-70
2022/09/30 05:34:54;;;;;;;18.67;10.47;;;8.40;95.40;;;;;;5007996;28;20265;-70
2022/09/30 05:37:19;;;;;;;16.23;10.73;;;8.40;95.60;;;;;;4998757;28;20456;-70
2022/09/30 05:39:45;;;;;;;19.90;11.60;;;8.40;95.70;;;;;;5001889;28;20522;-70
2022/09/30 05:42:10;;;;;;;17.40;10.83;;;8.40;95.80;;;;;;4986620;28;20243;-70
2022/09/30 05:44:36;;;;;;;23.73;10.50;;;8.50;95.80;;;;;;5009371;28;20257;-70
2022/09/30 05:47:02;;;;;;;19.80;10.17;;;8.50;95.70;;;;;;5005880;28;20201;-71
2022/09/30 05:49:27;;;;;;;20.53;10.80;;;8.50;95.70;;;;;;5004811;28;20182;-70
2022/09/30 05:51:53;;;;;;;18.87;11.30;;;8.50;95.70;;;;;;5008781;28;20189;-70
2022/09/30 05:54:19;;;;;;;26.67;11.63;;;8.50;95.70;;;;;;5002229;28;20794;-70
2022/09/30 05:56:44;;;;;;;19.93;11.00;;;8.40;95.60;;;;;;5005128;28;20656;-70
2022/09/30 05:59:10;;;;;;;20.47;12.23;;;8.40;95.60;;;;;;5003440;28;20260;-70
2022/09/30 06:01:35;;;;;;;21.10;11.77;;;8.40;95.60;;;;;;5004471;28;20182;-70
2022/09/30 06:04:01;;;;;;;19.50;10.13;;;8.40;95.70;;;;;;5004232;28;20257;-70
2022/09/30 06:06:27;;;;;;;25.27;11.30;;;8.40;95.70;;;;;;5011484;28;20281;-69
2022/09/30 06:08:53;;;;;;;25.17;12.20;;;8.50;95.70;;;;;;5010057;28;20567;-69
2022/09/30 06:11:22;;;;;;;20.30;11.70;;;8.50;95.60;;;;;;5001321;28;20191;-70
2022/09/30 06:13:48;;;;;;;21.40;11.43;;;8.60;95.50;;;;;;4995510;28;20668;-70
2022/09/30 06:16:14;;;;;;;16.67;10.87;;;8.60;95.40;;;;;;5013216;28;20519;-72
2022/09/30 06:18:40;;;;;;;24.50;13.30;;;8.60;95.30;;;;;;4992185;28;20539;-70
2022/09/30 06:21:07;;;;;;;17.40;10.90;;;8.60;95.20;;;;;;5008988;28;20539;-70
2022/09/30 06:23:36;;;;;;;25.43;12.33;;;8.60;95.20;;;;;;5012353;28;20427;-70
2022/09/30 06:26:04;;;;;;;26.00;13.97;;;8.60;95.30;;;;;;5001155;28;20983;-71
2022/09/30 06:28:33;;;;;;;27.60;13.97;;;8.60;95.40;;;;;;5003380;28;20600;-70
2022/09/30 06:30:59;;;;;;;36.10;15.33;;;8.60;95.40;;;;;;5003615;28;20453;-70
2022/09/30 06:33:26;;;;;;;26.60;13.60;;;8.70;95.40;;;;;;5012036;28;20463;-70
2022/09/30 06:35:52;;;;;;;22.90;12.33;;;8.80;95.20;;;;;;5004090;28;20450;-71
2022/09/30 06:38:17;;;;;;;30.17;14.30;;;8.80;95.20;;;;;;5004631;28;20503;-71
2022/09/30 06:40:48;;;;;;;30.13;15.83;;;8.80;95.10;;;;;;5001477;28;20183;-70
2022/09/30 06:43:14;;;;;;;26.40;13.73;;;8.90;95.20;;;;;;5008167;28;20656;-71
2022/09/30 06:45:39;;;;;;;29.47;15.37;;;8.90;95.20;;;;;;4986426;28;20420;-70
2022/09/30 06:48:07;;;;;;;25.13;14.80;;;8.90;95.30;;;;;;5010225;28;20664;-69
2022/09/30 06:50:33;;;;;;;28.00;14.27;;;8.90;95.30;;;;;;5009657;28;20178;-70
2022/09/30 06:53:01;;;;;;;23.53;12.80;;;9.10;95.40;;;;;;5012107;28;20428;-71
2022/09/30 06:55:28;;;;;;;28.13;14.73;;;9.20;95.30;;;;;;5005343;28;20665;-71
2022/09/30 06:57:54;;;;;;;24.20;14.77;;;9.40;95.20;;;;;;5007011;28;20460;-71
2022/09/30 07:00:20;;;;;;;26.90;15.47;;;9.40;95.10;;;;;;4987660;28;20492;-73
2022/09/30 07:02:47;;;;;;;28.40;15.77;;;9.30;94.70;;;;;;5000564;28;20512;-71
2022/09/30 07:05:14;;;;;;;29.23;15.40;;;9.40;94.80;;;;;;5010531;28;20420;-71
2022/09/30 07:07:41;;;;;;;26.83;14.23;;;9.40;94.80;;;;;;5003676;28;20829;-70
2022/09/30 07:10:07;;;;;;;24.47;14.90;;;9.50;94.70;;;;;;5003476;28;20440;-70
2022/09/30 07:12:33;;;;;;;29.13;15.93;;;9.60;94.50;;;;;;4994608;28;20424;-70
2022/09/30 07:14:59;;;;;;;27.37;15.43;;;9.60;94.50;;;;;;5006120;28;20475;-70
2022/09/30 07:17:26;;;;;;;27.67;15.10;;;9.70;94.30;;;;;;5005432;28;21320;-71
2022/09/30 07:19:51;;;;;;;23.37;13.50;;;9.70;94.10;;;;;;5006075;28;20501;-71
2022/09/30 07:22:28;;;;;;;25.77;13.07;;;9.80;94.00;;;;;;5007076;28;20465;-71
2022/09/30 07:24:58;;;;;;;30.43;13.87;;;9.80;93.60;;;;;;5007231;28;20181;-72
2022/09/30 07:27:26;;;;;;;23.67;14.80;;;9.90;93.60;;;;;;5000729;28;20482;-70
2022/09/30 07:29:53;;;;;;;25.37;15.13;;;10.00;93.60;;;;;;4989882;28;20436;-72
2022/09/30 07:32:20;;;;;;;35.93;15.73;;;10.00;93.30;;;;;;5007941;28;20416;-71
2022/09/30 07:34:46;;;;;;;25.00;16.07;;;10.10;93.10;;;;;;5008042;28;20435;-71
2022/09/30 07:37:14;;;;;;;26.57;15.03;;;10.20;93.00;;;;;;4999932;28;20452;-71
2022/09/30 07:39:41;;;;;;;26.90;15.33;;;10.20;92.70;;;;;;5010420;28;20303;-71
2022/09/30 07:42:07;;;;;;;30.00;16.33;;;10.20;92.60;;;;;;5003655;28;20834;-71
2022/09/30 07:44:32;;;;;;;31.90;15.53;;;10.20;92.70;;;;;;5008430;28;20420;-70
2022/09/30 07:47:00;;;;;;;29.13;16.70;;;10.20;92.70;;;;;;5001099;28;20352;-71
2022/09/30 07:49:26;;;;;;;25.57;15.53;;;10.30;92.80;;;;;;5000629;28;20178;-69
2022/09/30 07:51:54;;;;;;;32.07;17.83;;;10.40;92.50;;;;;;5005966;28;20447;-70
2022/09/30 07:54:22;;;;;;;30.23;16.87;;;10.20;92.30;;;;;;5002077;28;20198;-71
2022/09/30 07:56:49;;;;;;;37.10;17.93;;;10.10;92.90;;;;;;5010228;28;20425;-71
2022/09/30 07:59:15;;;;;;;33.03;18.27;;;9.90;93.20;;;;;;5002036;28;20452;-72
2022/09/30 08:01:40;;;;;;;36.00;18.67;;;9.90;93.80;;;;;;5005351;28;20521;-71
2022/09/30 08:04:09;;;;;;;32.07;18.47;;;9.90;93.80;;;;;;5005551;28;20179;-70
2022/09/30 08:06:44;;;;;;;32.50;17.60;;;9.90;93.90;;;;;;5004365;28;20212;-71
2022/09/30 08:09:11;;;;;;;31.80;16.80;;;10.00;93.90;;;;;;5005576;28;20498;-70
2022/09/30 08:11:38;;;;;;;31.00;17.00;;;10.10;93.60;;;;;;5006672;28;20426;-70
2022/09/30 08:14:04;;;;;;;38.07;18.70;;;10.10;93.50;;;;;;5006553;28;20422;-71
2022/09/30 08:16:30;;;;;;;33.70;18.13;;;10.20;93.50;;;;;;5006656;28;20434;-71
2022/09/30 08:18:57;;;;;;;38.17;18.00;;;10.30;93.20;;;;;;4998633;28;20483;-70
2022/09/30 08:21:23;;;;;;;26.07;15.57;;;10.40;93.20;;;;;;5004975;28;20197;-70
2022/09/30 08:23:49;;;;;;;31.50;17.50;;;10.60;93.10;;;;;;5006799;28;20488;-71
2022/09/30 08:26:15;;;;;;;45.73;17.93;;;10.90;92.50;;;;;;5009517;28;20919;-72
2022/09/30 08:28:42;;;;;;;28.93;16.83;;;11.10;92.00;;;;;;5004778;28;20209;-71
2022/09/30 08:31:13;;;;;;;28.33;17.07;;;11.00;90.90;;;;;;4994743;28;20422;-70
2022/09/30 08:33:39;;;;;;;33.33;17.63;;;10.70;91.50;;;;;;5010347;28;20563;-71
2022/09/30 08:36:14;;;;;;;35.07;18.90;;;10.60;92.10;;;;;;4995006;28;20426;-70
2022/09/30 08:38:40;;;;;;;30.83;17.17;;;10.60;92.20;;;;;;4998136;28;20500;-69
2022/09/30 08:41:23;;;;;;;28.30;15.67;;;10.60;92.20;;;;;;4997459;28;20797;-71
2022/09/30 08:43:52;;;;;;;37.37;19.40;;;10.60;92.50;;;;;;5004240;28;20418;-70
2022/09/30 08:46:48;;;;;;;30.80;16.33;;;10.70;92.40;;;;;;5003956;28;20467;-70
2022/09/30 08:49:28;;;;;;;33.13;20.07;;;10.70;92.20;;;;;;5006516;28;20931;-70
2022/09/30 08:51:56;;;;;;;30.90;18.17;;;10.70;92.20;;;;;;5000447;28;20436;-71
2022/09/30 08:54:29;;;;;;;36.23;17.73;;;10.70;92.30;;;;;;4998156;28;20424;-73
2022/09/30 08:56:56;;;;;;;32.43;17.30;;;10.80;92.10;;;;;;4983984;28;20540;-72
2022/09/30 08:59:38;;;;;;;33.57;18.60;;;10.80;92.20;;;;;;4997610;28;20542;-71
2022/09/30 09:02:16;;;;;;;34.60;18.10;;;10.80;92.00;;;;;;5004346;28;20943;-71
2022/09/30 09:04:42;;;;;;;33.13;17.87;;;10.90;91.90;;;;;;5001831;28;20416;-71
2022/09/30 09:07:29;;;;;;;30.10;17.33;;;10.90;91.70;;;;;;4994959;28;20460;-71
2022/09/30 09:10:20;;;;;;;31.53;17.70;;;11.00;91.70;;;;;;5006130;28;20429;-72
2022/09/30 09:12:54;;;;;;;31.63;17.33;;;11.00;91.60;;;;;;4994375;28;20410;-71
2022/09/30 09:15:35;;;;;;;34.60;18.47;;;11.00;91.40;;;;;;4979992;28;20895;-69
2022/09/30 09:18:38;;;;;;;35.33;18.07;;;11.00;91.40;;;;;;4998388;28;20457;-71
2022/09/30 09:21:20;;;;;;;24.33;15.57;;;11.20;91.50;;;;;;4993389;28;20448;-70
2022/09/30 09:23:47;;;;;;;33.60;17.27;;;11.30;90.90;;;;;;4996630;28;20884;-72
2022/09/30 09:26:14;;;;;;;29.53;17.20;;;11.40;90.70;;;;;;5003847;28;20507;-72
2022/09/30 09:29:05;;;;;;;35.07;19.23;;;11.60;90.50;;;;;;4991130;28;20518;-70
2022/09/30 09:31:30;;;;;;;31.77;17.40;;;11.50;90.00;;;;;;4985667;28;20425;-70
2022/09/30 09:34:07;;;;;;;35.30;19.07;;;11.50;90.10;;;;;;5000563;28;20506;-70
2022/09/30 09:36:42;;;;;;;37.97;18.63;;;11.60;90.20;;;;;;5001932;28;20192;-70
2022/09/30 09:39:33;;;;;;;32.83;19.10;;;11.70;89.30;;;;;;5003410;28;20475;-71
2022/09/30 09:42:36;;;;;;;36.63;19.33;;;11.60;89.50;;;;;;5009808;28;21037;-71
2022/09/30 09:45:24;;;;;;;30.97;17.90;;;11.60;89.30;;;;;;5010296;28;20829;-70
2022/09/30 09:47:51;;;;;;;39.43;18.10;;;11.70;89.00;;;;;;4994369;28;20488;-72
2022/09/30 09:50:45;;;;;;;30.23;16.97;;;12.00;88.90;;;;;;5005376;28;20431;-71
2022/09/30 09:53:47;;;;;;;31.83;16.50;;;12.00;87.40;;;;;;5010426;28;20507;-71
2022/09/30 09:56:17;;;;;;;27.93;15.83;;;12.00;87.00;;;;;;4996714;28;20425;-70
2022/09/30 09:59:03;;;;;;;33.03;17.00;;;12.20;86.80;;;;;;5017235;28;20503;-70
2022/09/30 10:01:31;;;;;;;26.47;14.87;;;12.50;86.50;;;;;;5022369;28;20413;-72
2022/09/30 10:04:10;;;;;;;25.83;16.00;;;12.50;85.20;;;;;;4987922;28;20448;-70
2022/09/30 10:07:00;;;;;;;28.17;15.70;;;12.60;85.20;;;;;;5012387;28;20420;-70
2022/09/30 10:09:30;;;;;;;27.83;15.60;;;12.70;84.60;;;;;;4993912;28;20459;-70
2022/09/30 10:12:05;;;;;;;27.57;15.33;;;12.60;84.10;;;;;;5015078;28;20987;-72
2022/09/30 10:14:51;;;;;;;30.77;15.30;;;12.40;84.70;;;;;;5011894;28;20425;-71
2022/09/30 10:17:29;;;;;;;23.70;14.40;;;12.50;85.20;;;;;;4999752;28;20491;-71
2022/09/30 10:20:06;;;;;;;22.87;13.80;;;12.70;84.90;;;;;;5011791;28;21132;-72
2022/09/30 10:22:33;;;;;;;26.60;14.23;;;12.70;83.40;;;;;;5014033;28;20857;-71
2022/09/30 10:25:17;;;;;;;23.90;13.30;;;12.80;83.60;;;;;;5015439;28;20502;-70
2022/09/30 10:27:58;;;;;;;21.37;13.07;;;13.00;83.10;;;;;;5009914;28;20444;-70
2022/09/30 10:30:41;;;;;;;20.60;11.33;;;13.10;80.50;;;;;;4996105;28;20429;-70
2022/09/30 10:33:21;;;;;;;19.30;11.13;;;13.20;79.70;;;;;;5009056;28;20420;-71
2022/09/30 10:35:54;;;;;;;15.27;10.60;;;13.50;78.60;;;;;;5010524;28;20921;-72
2022/09/30 10:38:28;;;;;;;20.13;10.27;;;13.80;77.80;;;;;;5003378;28;20480;-72
2022/09/30 10:40:54;;;;;;;16.17;9.90;;;14.20;75.80;;;;;;5002384;28;20433;-71
2022/09/30 10:43:25;;;;;;;13.40;8.10;;;14.40;74.60;;;;;;5002827;28;20936;-71
2022/09/30 10:45:51;;;;;;;12.03;7.50;;;14.70;72.30;;;;;;5004312;28;20406;-71
2022/09/30 10:48:21;;;;;;;7.30;5.37;;;15.00;70.40;;;;;;5001063;28;20449;-72
2022/09/30 10:50:54;;;;;;;11.50;4.83;;;15.30;69.80;;;;;;5004226;28;20417;-71
2022/09/30 10:53:23;;;;;;;11.90;5.70;;;15.80;68.30;;;;;;5000615;28;20419;-71
2022/09/30 10:55:49;;;;;;;7.20;5.60;;;16.50;64.50;;;;;;4978250;28;20426;-71
2022/09/30 10:58:34;;;;;;;8.97;4.90;;;16.80;64.50;;;;;;5007134;28;20491;-72
2022/09/30 11:01:09;;;;;;;9.50;5.20;;;17.10;62.50;;;;;;4995725;28;20959;-72
2022/09/30 11:04:06;;;;;;;7.93;4.83;;;17.60;62.20;;;;;;5005272;28;20435;-72
2022/09/30 11:06:36;;;;;;;10.33;4.57;;;18.00;60.00;;;;;;4978035;28;20441;-72
2022/09/30 11:09:13;;;;;;;6.80;5.17;;;18.30;57.60;;;;;;4997977;28;20457;-70
2022/09/30 11:11:47;;;;;;;7.40;4.93;;;18.50;56.80;;;;;;5006453;28;20512;-70
2022/09/30 11:14:36;;;;;;;5.50;3.63;;;18.90;57.80;;;;;;5008813;28;20421;-72
2022/09/30 11:17:23;;;;;;;6.30;4.37;;;18.90;57.60;;;;;;4998087;28;20440;-72
2022/09/30 11:20:10;;;;;;;7.57;3.90;;;19.50;56.90;;;;;;5009092;28;21034;-71
2022/09/30 11:22:36;;;;;;;10.70;4.53;;;19.80;54.10;;;;;;4994717;28;20417;-73
2022/09/30 11:25:02;;;;;;;5.40;3.50;;;20.00;53.20;;;;;;5006104;28;20416;-73
2022/09/30 11:28:22;;;;;;;5.37;3.43;;;20.10;50.10;;;;;;5005914;28;20226;-72
2022/09/30 11:30:57;;;;;;;4.33;3.30;;;19.90;50.30;;;;;;4966866;28;20929;-72
2022/09/30 11:33:46;;;;;;;5.03;3.43;;;19.70;52.10;;;;;;4968287;28;20428;-70
2022/09/30 11:36:57;;;;;;;7.70;3.70;;;20.00;50.70;;;;;;4956670;28;20926;-71
2022/09/30 11:39:50;;;;;;;7.20;3.53;;;20.20;48.70;;;;;;4867890;29;20486;-73
2022/09/30 11:42:24;;;;;;;6.67;3.53;;;20.30;47.90;;;;;;4873923;29;20428;-73
2022/09/30 11:45:19;;;;;;;7.23;4.20;;;20.10;49.10;;;;;;4866382;29;20438;-71
2022/09/30 11:48:05;;;;;;;6.13;4.80;;;19.60;51.20;;;;;;4867796;29;20510;-70
2022/09/30 11:51:04;;;;;;;9.10;5.00;;;19.30;53.30;;;;;;4874269;29;20431;-72
2022/09/30 11:53:52;;;;;;;5.87;4.53;;;19.60;53.00;;;;;;4856870;29;20530;-71
2022/09/30 11:56:18;;;;;;;5.57;4.10;;;19.50;53.40;;;;;;4873299;29;20437;-72
2022/09/30 11:58:48;;;;;;;7.13;4.63;;;19.40;53.30;;;;;;4870528;29;20467;-71
2022/09/30 12:01:43;;;;;;;5.10;4.00;;;19.40;53.40;;;;;;4869017;29;20189;-72
2022/09/30 12:04:33;;;;;;;7.67;4.00;;;19.00;53.20;;;;;;4878399;29;20444;-72
2022/09/30 12:07:14;;;;;;;8.13;3.80;;;19.20;53.20;;;;;;4897264;29;20623;-71
2022/09/30 12:09:47;;;;;;;8.00;4.00;;;19.40;50.30;;;;;;4941066;28;20433;-69
2022/09/30 12:12:16;;;;;;;8.20;4.30;;;18.70;53.20;;;;;;5006481;28;20459;-72
2022/09/30 12:15:06;;;;;;;8.23;4.20;;;18.70;53.80;;;;;;4992874;28;20431;-72
2022/09/30 12:17:44;;;;;;;7.57;4.07;;;19.20;53.80;;;;;;4991763;28;20552;-71
2022/09/30 12:20:24;;;;;;;5.67;3.70;;;19.60;52.60;;;;;;5006819;28;20516;-73
2022/09/30 12:22:57;;;;;;;5.73;3.90;;;19.90;52.50;;;;;;5002525;28;20421;-70
2022/09/30 12:25:30;;;;;;;8.17;3.80;;;19.90;51.30;;;;;;5001432;28;20421;-72
2022/09/30 12:31:26;;;;;;;4.47;3.33;;;19.50;52.80;;;;;;5007611;28;20452;-72
2022/09/30 12:34:19;;;;;;;5.80;3.60;;;19.60;51.00;;;;;;4993973;28;20418;-70
2022/09/30 12:36:54;;;;;;;9.23;3.83;;;19.20;52.10;;;;;;4995293;28;20425;-70
2022/09/30 12:39:33;;;;;;;4.40;3.47;;;19.10;52.00;;;;;;5008808;28;20463;-71
2022/09/30 12:42:11;;;;;;;6.07;3.80;;;18.50;52.60;;;;;;5000643;28;20432;-72
2022/09/30 12:45:01;;;;;;;4.90;3.10;;;18.30;53.30;;;;;;5004334;28;20439;-72
2022/09/30 12:47:44;;;;;;;5.03;3.27;;;18.20;52.90;;;;;;4981432;28;20951;-73
2022/09/30 12:50:14;;;;;;;4.80;2.83;;;18.40;52.10;;;;;;5002796;28;20429;-71
2022/09/30 12:52:40;;;;;;;5.83;3.03;;;18.30;51.30;;;;;;5003774;28;20495;-72
2022/09/30 12:55:18;;;;;;;4.23;2.90;;;18.80;50.50;;;;;;4995798;28;20540;-71
2022/09/30 12:57:46;;;;;;;4.97;3.07;;;18.90;49.40;;;;;;4987744;28;20225;-72
2022/09/30 13:00:23;;;;;;;3.67;2.70;;;19.00;49.80;;;;;;4990431;28;20465;-72
2022/09/30 13:03:06;;;;;;;5.03;2.97;;;19.20;47.70;;;;;;4996786;28;20421;-72
2022/09/30 13:05:37;;;;;;;3.80;2.63;;;18.70;48.30;;;;;;5008335;28;20409;-72
2022/09/30 13:08:02;;;;;;;3.87;2.60;;;18.70;49.50;;;;;;5003630;28;20973;-72
2022/09/30 13:10:29;;;;;;;4.60;2.60;;;19.00;47.90;;;;;;5002913;28;20423;-71
2022/09/30 13:13:22;;;;;;;4.13;2.77;;;19.00;49.00;;;;;;5002668;28;20216;-71
2022/09/30 13:15:52;;;;;;;2.97;2.67;;;18.70;50.60;;;;;;4999181;28;20426;-70